createdAt,value
2018-04-14T00:01:52.706Z,100360.61
2018-04-14T00:04:20.326Z,100360.81
2018-04-14T00:06:48.020Z,100359.41
2018-04-14T00:09:15.679Z,100366.22
2018-04-14T00:11:43.349Z,100374.76
2018-04-14T00:14:10.970Z,100379.44
2018-04-14T00:16:38.663Z,100371.80
2018-04-14T00:19:06.344Z,100385.55
2018-04-14T00:21:33.979Z,100385.19
2018-04-14T00:24:01.667Z,100386.19
2018-04-14T00:26:29.319Z,100384.65
2018-04-14T00:28:57.000Z,100388.09
2018-04-14T00:31:24.660Z,100388.11
2018-04-14T00:33:52.327Z,100392.34
2018-04-14T00:36:19.987Z,100393.79
2018-04-14T00:38:47.650Z,100395.64
2018-04-14T00:41:15.269Z,100396.87
2018-04-14T00:43:42.947Z,100391.84
2018-04-14T00:46:10.570Z,100399.05
2018-04-14T00:48:38.235Z,100390.31
2018-04-14T00:51:05.909Z,100400.95
2018-04-14T00:53:45.427Z,100402.57
2018-04-14T00:56:13.158Z,100401.16
2018-04-14T00:58:40.851Z,100403.98
2018-04-14T01:01:08.498Z,100404.17
2018-04-14T01:03:36.160Z,100401.03
2018-04-14T01:06:03.828Z,100399.23
2018-04-14T01:08:31.497Z,100394.92
2018-04-14T01:10:59.146Z,100395.64
2018-04-14T01:13:26.851Z,100403.47
2018-04-14T01:15:54.470Z,100399.28
2018-04-14T01:18:22.130Z,100402.03
2018-04-14T01:20:49.779Z,100398.84
2018-04-14T01:23:17.448Z,100408.32
2018-04-14T01:25:45.072Z,100403.88
2018-04-14T01:28:12.756Z,100409.27
2018-04-14T01:30:40.409Z,100403.27
2018-04-14T01:33:08.070Z,100406.56
2018-04-14T01:35:35.712Z,100409.09
2018-04-14T01:38:03.403Z,100415.88
2018-04-14T01:40:31.043Z,100419.19
2018-04-14T01:42:58.732Z,100413.44
2018-04-14T01:45:26.430Z,100414.57
2018-04-14T01:47:54.098Z,100423.11
2018-04-14T01:50:21.712Z,100420.69
2018-04-14T01:52:49.415Z,100423.09
2018-04-14T01:55:17.080Z,100425.68
2018-04-14T01:57:44.747Z,100428.57
2018-04-14T02:00:12.400Z,100423.31
2018-04-14T02:02:40.069Z,100424.88
2018-04-14T02:05:07.683Z,100420.43
2018-04-14T02:07:35.371Z,100426.98
2018-04-14T02:10:03.110Z,100427.03
2018-04-14T02:12:30.783Z,100418.70
2018-04-14T02:14:58.413Z,100421.28
2018-04-14T02:17:26.090Z,100408.41
2018-04-14T02:19:53.758Z,100418.33
2018-04-14T02:22:21.437Z,100414.05
2018-04-14T02:24:49.068Z,100425.08
2018-04-14T02:27:16.738Z,100421.11
2018-04-14T02:29:44.366Z,100418.98
2018-04-14T02:32:12.035Z,100425.39
2018-04-14T02:34:39.699Z,100419.30
2018-04-14T02:37:07.400Z,100427.56
2018-04-14T02:39:35.090Z,100430.91
2018-04-14T02:42:02.762Z,100433.53
2018-04-14T02:44:30.452Z,100436.19
2018-04-14T02:46:58.099Z,100435.16
2018-04-14T02:49:25.760Z,100436.03
2018-04-14T02:51:53.408Z,100436.27
2018-04-14T02:54:21.100Z,100435.06
2018-04-14T02:56:48.740Z,100436.73
2018-04-14T02:59:16.417Z,100445.83
2018-04-14T03:01:44.040Z,100442.34
2018-04-14T03:04:11.700Z,100447.47
2018-04-14T03:06:39.331Z,100452.46
2018-04-14T03:09:07.051Z,100455.81
2018-04-14T03:11:34.680Z,100460.94
2018-04-14T03:14:02.360Z,100461.34
2018-04-14T03:16:30.010Z,100464.37
2018-04-14T03:18:57.698Z,100460.69
2018-04-14T03:21:25.334Z,100466.81
2018-04-14T03:23:53.026Z,100472.22
2018-04-14T03:26:20.655Z,100478.28
2018-04-14T03:28:48.331Z,100472.50
2018-04-14T03:31:16.040Z,100479.81
2018-04-14T03:33:43.679Z,100477.87
2018-04-14T03:36:11.303Z,100475.65
2018-04-14T03:38:38.959Z,100474.48
2018-04-14T03:41:06.618Z,100473.78
2018-04-14T03:43:34.279Z,100477.31
2018-04-14T03:46:01.902Z,100479.63
2018-04-14T03:48:29.558Z,100479.20
2018-04-14T03:50:57.198Z,100481.34
2018-04-14T03:53:24.859Z,100487.44
2018-04-14T03:55:52.509Z,100485.39
2018-04-14T03:58:20.168Z,100480.66
2018-04-14T04:00:47.798Z,100486.14
2018-04-14T04:03:15.467Z,100493.51
2018-04-14T04:05:43.078Z,100495.86
2018-04-14T04:08:10.777Z,100494.66
2018-04-14T04:10:38.398Z,100493.63
2018-04-14T04:13:06.048Z,100495.73
2018-04-14T04:15:33.711Z,100494.47
2018-04-14T04:18:01.363Z,100498.08
2018-04-14T04:20:40.790Z,100493.17
2018-04-14T04:23:20.231Z,100497.16
2018-04-14T04:25:48.719Z,100505.25
2018-04-14T04:28:16.432Z,100506.25
2018-04-14T04:30:44.058Z,100505.53
2018-04-14T04:33:11.813Z,100508.27
2018-04-14T04:35:39.407Z,100505.35
2018-04-14T04:38:07.055Z,100509.23
2018-04-14T04:40:34.680Z,100513.56
2018-04-14T04:43:02.338Z,100513.16
2018-04-14T04:45:29.970Z,100521.17
2018-04-14T04:47:57.589Z,100524.91
2018-04-14T04:50:25.237Z,100529.63
2018-04-14T04:52:52.861Z,100527.09
2018-04-14T04:55:20.530Z,100545.05
2018-04-14T04:57:48.139Z,100551.69
2018-04-14T05:00:15.801Z,100553.55
2018-04-14T05:02:43.499Z,100552.89
2018-04-14T05:05:11.157Z,100552.29
2018-04-14T05:07:38.786Z,100560.44
2018-04-14T05:10:06.433Z,100569.77
2018-04-14T05:12:34.030Z,100577.69
2018-04-14T05:15:01.767Z,100581.97
2018-04-14T05:17:29.383Z,100582.31
2018-04-14T05:19:57.041Z,100585.41
2018-04-14T05:22:24.688Z,100598.09
2018-04-14T05:24:52.346Z,100601.23
2018-04-14T05:27:20.037Z,100602.79
2018-04-14T05:29:47.715Z,100608.40
2018-04-14T05:32:15.367Z,100602.78
2018-04-14T05:34:43.018Z,100609.38
2018-04-14T05:37:10.630Z,100609.98
2018-04-14T05:39:38.278Z,100607.75
2018-04-14T05:42:05.903Z,100615.60
2018-04-14T05:44:33.600Z,100609.73
2018-04-14T05:47:01.220Z,100614.69
2018-04-14T05:49:28.888Z,100610.63
2018-04-14T05:51:56.567Z,100611.84
2018-04-14T05:54:24.301Z,100613.67
2018-04-14T05:56:51.931Z,100613.91
2018-04-14T05:59:19.604Z,100612.33
2018-04-14T06:01:47.259Z,100608.77
2018-04-14T06:04:14.951Z,100615.60
2018-04-14T06:06:42.619Z,100620.19
2018-04-14T06:09:10.286Z,100612.99
2018-04-14T06:11:38.291Z,100621.09
2018-04-14T06:14:05.956Z,100624.41
2018-04-14T06:16:33.579Z,100631.75
2018-04-14T06:19:01.236Z,100627.44
2018-04-14T06:21:28.897Z,100638.00
2018-04-14T06:23:56.727Z,100644.74
2018-04-14T06:26:24.350Z,100635.52
2018-04-14T06:28:52.046Z,100644.38
2018-04-14T06:31:19.661Z,100654.77
2018-04-14T06:33:47.366Z,100656.53
2018-04-14T06:36:14.983Z,100653.20
2018-04-14T06:38:42.665Z,100663.92
2018-04-14T06:41:10.272Z,100667.08
2018-04-14T06:43:37.940Z,100671.87
2018-04-14T06:46:05.566Z,100672.69
2018-04-14T06:48:33.223Z,100681.72
2018-04-14T06:51:00.871Z,100687.73
2018-04-14T06:53:28.559Z,100685.41
2018-04-14T06:55:56.261Z,100684.72
2018-04-14T06:58:23.886Z,100687.08
2018-04-14T07:00:51.570Z,100692.01
2018-04-14T07:03:19.203Z,100692.19
2018-04-14T07:05:46.871Z,100696.50
2018-04-14T07:08:14.549Z,100698.83
2018-04-14T07:10:42.219Z,100703.79
2018-04-14T07:13:09.880Z,100708.77
2018-04-14T07:15:37.531Z,100705.23
2018-04-14T07:18:05.151Z,100714.57
2018-04-14T07:20:32.928Z,100709.33
2018-04-14T07:23:00.545Z,100720.11
2018-04-14T07:25:28.224Z,100716.60
2018-04-14T07:27:55.855Z,100715.33
2018-04-14T07:30:23.531Z,100721.84
2018-04-14T07:32:51.210Z,100724.87
2018-04-14T07:35:19.175Z,100725.98
2018-04-14T07:37:46.795Z,100722.40
2018-04-14T07:40:14.490Z,100720.05
2018-04-14T07:42:42.115Z,100724.27
2018-04-14T07:45:09.789Z,100727.08
2018-04-14T07:47:37.449Z,100734.87
2018-04-14T07:50:05.155Z,100726.00
2018-04-14T07:52:32.804Z,100728.32
2018-04-14T07:55:00.622Z,100723.33
2018-04-14T07:57:28.238Z,100729.72
2018-04-14T07:59:55.971Z,100732.90
2018-04-14T08:02:23.611Z,100735.61
2018-04-14T08:04:51.284Z,100734.07
2018-04-14T08:07:18.918Z,100739.13
2018-04-14T08:09:46.600Z,100738.32
2018-04-14T08:12:14.214Z,100734.58
2018-04-14T08:14:41.894Z,100737.87
2018-04-14T08:17:09.517Z,100739.35
2018-04-14T08:19:37.179Z,100746.80
2018-04-14T08:22:04.864Z,100746.05
2018-04-14T08:24:32.523Z,100742.71
2018-04-14T08:27:00.157Z,100740.49
2018-04-14T08:29:27.810Z,100750.54
2018-04-14T08:31:55.434Z,100746.27
2018-04-14T08:34:23.110Z,100753.53
2018-04-14T08:36:50.739Z,100750.95
2018-04-14T08:39:18.402Z,100747.23
2018-04-14T08:41:46.075Z,100750.91
2018-04-14T08:44:13.728Z,100758.61
2018-04-14T08:46:41.357Z,100765.16
2018-04-14T08:49:09.018Z,100769.45
2018-04-14T08:51:36.690Z,100771.48
2018-04-14T08:54:04.359Z,100773.04
2018-04-14T08:56:31.968Z,100777.73
2018-04-14T08:58:59.634Z,100769.67
2018-04-14T09:01:27.239Z,100776.28
2018-04-14T09:03:54.860Z,100776.02
2018-04-14T09:06:22.530Z,100766.98
2018-04-14T09:08:50.163Z,100767.02
2018-04-14T09:11:17.828Z,100762.85
2018-04-14T09:13:45.432Z,100755.21
2018-04-14T09:16:13.142Z,100761.05
2018-04-14T09:18:40.840Z,100762.25
2018-04-14T09:21:08.538Z,100761.39
2018-04-14T09:23:36.155Z,100757.98
2018-04-14T09:26:03.833Z,100749.86
2018-04-14T09:28:31.480Z,100748.80
2018-04-14T09:30:59.154Z,100747.91
2018-04-14T09:33:26.869Z,100749.81
2018-04-14T09:35:54.547Z,100740.93
2018-04-14T09:38:22.190Z,100741.87
2018-04-14T09:40:49.885Z,100749.53
2018-04-14T09:43:17.491Z,100741.04
2018-04-14T09:45:45.196Z,100728.50
2018-04-14T09:48:12.874Z,100735.75
2018-04-14T09:50:40.559Z,100735.09
2018-04-14T09:53:08.225Z,100732.59
2018-04-14T09:55:35.911Z,100733.59
2018-04-14T09:58:03.545Z,100731.31
2018-04-14T10:00:31.234Z,100734.41
2018-04-14T10:03:00.710Z,100721.17
2018-04-14T10:05:28.322Z,100719.81
2018-04-14T10:07:55.962Z,100718.84
2018-04-14T10:10:23.644Z,100720.03
2018-04-14T10:12:51.264Z,100712.22
2018-04-14T10:15:18.918Z,100707.23
2018-04-14T10:17:46.551Z,100714.08
2018-04-14T10:20:14.216Z,100705.64
2018-04-14T10:22:41.932Z,100710.14
2018-04-14T10:25:09.598Z,100708.16
2018-04-14T10:27:37.319Z,100704.09
2018-04-14T10:30:05.021Z,100702.86
2018-04-14T10:32:32.643Z,100703.50
2018-04-14T10:35:00.447Z,100695.20
2018-04-14T10:37:28.134Z,100697.63
2018-04-14T10:39:55.806Z,100692.59
2018-04-14T10:42:23.501Z,100693.11
2018-04-14T10:44:51.177Z,100689.30
2018-04-14T10:47:18.811Z,100693.17
2018-04-14T10:49:46.472Z,100691.98
2018-04-14T10:52:14.188Z,100693.48
2018-04-14T10:54:41.858Z,100690.79
2018-04-14T10:57:09.499Z,100685.63
2018-04-14T10:59:37.160Z,100681.41
2018-04-14T11:02:04.790Z,100677.18
2018-04-14T11:04:32.448Z,100673.93
2018-04-14T11:07:00.159Z,100678.22
2018-04-14T11:09:27.843Z,100678.41
2018-04-14T11:11:55.503Z,100674.03
2018-04-14T11:14:23.149Z,100676.48
2018-04-14T11:16:50.859Z,100673.06
2018-04-14T11:19:18.494Z,100680.83
2018-04-14T11:21:46.240Z,100665.80
2018-04-14T11:24:13.854Z,100669.23
2018-04-14T11:26:41.502Z,100670.53
2018-04-14T11:29:09.124Z,100670.30
2018-04-14T11:31:36.779Z,100670.13
2018-04-14T11:34:04.462Z,100667.91
2018-04-14T11:36:32.119Z,100663.42
2018-04-14T11:38:59.732Z,100661.78
2018-04-14T11:41:27.392Z,100659.98
2018-04-14T11:43:55.048Z,100662.97
2018-04-14T11:46:22.721Z,100659.08
2018-04-14T11:48:50.359Z,100656.56
2018-04-14T11:51:18.054Z,100658.01
2018-04-14T11:53:45.710Z,100657.27
2018-04-14T11:56:13.376Z,100651.71
2018-04-14T11:58:41.001Z,100651.82
2018-04-14T12:01:08.672Z,100654.74
2018-04-14T12:03:36.294Z,100650.91
2018-04-14T12:06:04.051Z,100652.78
2018-04-14T12:08:31.676Z,100657.60
2018-04-14T12:10:59.331Z,100662.06
2018-04-14T12:13:26.960Z,100657.08
2018-04-14T12:15:54.631Z,100658.44
2018-04-14T12:18:22.299Z,100655.28
2018-04-14T12:20:49.972Z,100657.42
2018-04-14T12:23:17.610Z,100654.67
2018-04-14T12:25:45.289Z,100654.17
2018-04-14T12:28:12.929Z,100647.95
2018-04-14T12:30:40.603Z,100654.34
2018-04-14T12:33:08.246Z,100650.37
2018-04-14T12:35:35.923Z,100647.07
2018-04-14T12:38:03.566Z,100652.20
2018-04-14T12:40:31.245Z,100648.77
2018-04-14T12:42:58.873Z,100652.78
2018-04-14T12:45:26.535Z,100649.78
2018-04-14T12:47:54.157Z,100650.97
2018-04-14T12:50:21.807Z,100651.17
2018-04-14T12:52:49.441Z,100644.64
2018-04-14T12:55:17.094Z,100640.55
2018-04-14T12:57:44.769Z,100634.66
2018-04-14T13:00:12.445Z,100632.70
2018-04-14T13:02:40.110Z,100631.17
2018-04-14T13:05:07.770Z,100629.79
2018-04-14T13:07:35.436Z,100628.83
2018-04-14T13:10:03.104Z,100637.23
2018-04-14T13:12:30.758Z,100630.12
2018-04-14T13:14:58.416Z,100635.41
2018-04-14T13:17:26.073Z,100634.23
2018-04-14T13:19:53.699Z,100631.73
2018-04-14T13:22:21.351Z,100631.24
2018-04-14T13:24:49.009Z,100624.35
2018-04-14T13:27:16.675Z,100622.36
2018-04-14T13:29:44.322Z,100615.52
2018-04-14T13:32:12.065Z,100611.27
2018-04-14T13:34:39.686Z,100613.17
2018-04-14T13:37:07.402Z,100608.23
2018-04-14T13:39:35.015Z,100605.55
2018-04-14T13:42:02.683Z,100603.52
2018-04-14T13:44:30.294Z,100602.97
2018-04-14T13:46:58.028Z,100593.17
2018-04-14T13:49:25.642Z,100595.80
2018-04-14T13:51:53.335Z,100580.58
2018-04-14T13:54:21.062Z,100584.08
2018-04-14T13:56:48.716Z,100589.02
2018-04-14T13:59:16.388Z,100569.88
2018-04-14T14:01:44.051Z,100565.34
2018-04-14T14:04:11.683Z,100568.46
2018-04-14T14:06:39.353Z,100560.07
2018-04-14T14:09:07.908Z,100561.66
2018-04-14T14:11:35.583Z,100570.09
2018-04-14T14:14:03.277Z,100560.73
2018-04-14T14:16:30.907Z,100559.55
2018-04-14T14:18:58.587Z,100556.94
2018-04-14T14:21:26.227Z,100559.98
2018-04-14T14:23:53.920Z,100552.36
2018-04-14T14:26:21.539Z,100550.72
2018-04-14T14:28:49.202Z,100545.19
2018-04-14T14:31:16.810Z,100544.45
2018-04-14T14:33:44.474Z,100545.21
2018-04-14T14:36:12.099Z,100535.90
2018-04-14T14:38:39.762Z,100540.19
2018-04-14T14:41:07.379Z,100527.75
2018-04-14T14:43:35.040Z,100527.97
2018-04-14T14:46:02.680Z,100533.47
2018-04-14T14:48:30.433Z,100530.20
2018-04-14T14:50:58.039Z,100531.56
2018-04-14T14:53:25.696Z,100532.59
2018-04-14T14:55:53.298Z,100525.55
2018-04-14T14:58:20.956Z,100535.80
2018-04-14T15:00:48.582Z,100532.34
2018-04-14T15:03:16.433Z,100535.73
2018-04-14T15:05:44.051Z,100537.11
2018-04-14T15:08:11.722Z,100533.54
2018-04-14T15:10:39.411Z,100529.20
2018-04-14T15:13:07.055Z,100522.16
2018-04-14T15:15:34.706Z,100522.92
2018-04-14T15:18:02.322Z,100516.16
2018-04-14T15:20:29.980Z,100510.16
2018-04-14T15:22:57.615Z,100516.03
2018-04-14T15:25:25.343Z,100511.02
2018-04-14T15:27:52.958Z,100520.50
2018-04-14T15:30:20.612Z,100520.77
2018-04-14T15:32:48.220Z,100509.92
2018-04-14T15:35:15.880Z,100518.91
2018-04-14T15:37:43.502Z,100514.58
2018-04-14T15:40:11.195Z,100515.72
2018-04-14T15:42:38.815Z,100514.66
2018-04-14T15:45:06.467Z,100513.92
2018-04-14T15:47:34.095Z,100511.78
2018-04-14T15:50:01.775Z,100513.51
2018-04-14T15:52:29.435Z,100503.01
2018-04-14T15:54:57.102Z,100503.72
2018-04-14T15:57:24.757Z,100500.42
2018-04-14T15:59:52.417Z,100500.45
2018-04-14T16:02:20.022Z,100507.41
2018-04-14T16:04:47.709Z,100502.47
2018-04-14T16:07:15.393Z,100504.45
2018-04-14T16:09:43.017Z,100501.83
2018-04-14T16:12:10.679Z,100503.39
2018-04-14T16:14:38.288Z,100499.66
2018-04-14T16:17:05.981Z,100509.44
2018-04-14T16:19:33.660Z,100511.17
2018-04-14T16:22:01.366Z,100509.16
2018-04-14T16:24:29.015Z,100516.45
2018-04-14T16:26:56.687Z,100516.71
2018-04-14T16:29:24.308Z,100521.04
2018-04-14T16:31:51.980Z,100522.48
2018-04-14T16:34:19.589Z,100519.69
2018-04-14T16:36:47.259Z,100525.72
2018-04-14T16:39:14.866Z,100519.77
2018-04-14T16:41:42.526Z,100521.65
2018-04-14T16:44:10.143Z,100523.11
2018-04-14T16:46:37.843Z,100521.56
2018-04-14T16:49:05.476Z,100519.92
2018-04-14T16:51:33.138Z,100515.58
2018-04-14T16:54:00.794Z,100521.34
2018-04-14T16:56:28.446Z,100518.27
2018-04-14T16:58:56.068Z,100519.08
2018-04-14T17:01:23.774Z,100513.77
2018-04-14T17:03:51.379Z,100515.22
2018-04-14T17:06:19.095Z,100522.33
2018-04-14T17:08:46.759Z,100523.80
2018-04-14T17:11:14.475Z,100518.86
2018-04-14T17:13:42.177Z,100520.14
2018-04-14T17:16:09.843Z,100520.82
2018-04-14T17:18:37.451Z,100509.69
2018-04-14T17:21:05.106Z,100515.41
2018-04-14T17:23:32.768Z,100509.96
2018-04-14T17:26:00.377Z,100509.92
2018-04-14T17:28:28.030Z,100509.46
2018-04-14T17:30:55.655Z,100516.83
2018-04-14T17:33:23.374Z,100511.03
2018-04-14T17:35:50.989Z,100521.02
2018-04-14T17:38:18.647Z,100513.04
2018-04-14T17:40:47.317Z,100505.91
2018-04-14T17:43:15.372Z,100512.52
2018-04-14T17:45:43.039Z,100515.42
2018-04-14T17:48:10.702Z,100513.89
2018-04-14T17:50:38.319Z,100511.34
2018-04-14T17:53:05.983Z,100506.06
2018-04-14T17:55:33.634Z,100505.13
2018-04-14T17:58:01.299Z,100511.34
2018-04-14T18:00:28.999Z,100504.95
2018-04-14T18:02:56.729Z,100499.18
2018-04-14T18:05:24.355Z,100497.47
2018-04-14T18:07:52.008Z,100495.97
2018-04-14T18:10:19.730Z,100505.20
2018-04-14T18:12:47.398Z,100508.51
2018-04-14T18:15:15.088Z,100507.66
2018-04-14T18:17:42.737Z,100515.27
2018-04-14T18:20:10.377Z,100516.91
2018-04-14T18:22:38.091Z,100516.45
2018-04-14T18:25:05.712Z,100516.25
2018-04-14T18:27:33.395Z,100515.52
2018-04-14T18:30:01.039Z,100513.75
2018-04-14T18:32:28.809Z,100511.14
2018-04-14T18:34:56.439Z,100517.94
2018-04-14T18:37:24.122Z,100514.55
2018-04-14T18:39:51.789Z,100521.13
2018-04-14T18:42:19.496Z,100524.52
2018-04-14T18:44:47.161Z,100523.81
2018-04-14T18:47:14.815Z,100530.81
2018-04-14T18:49:42.509Z,100533.01
2018-04-14T18:52:10.158Z,100538.02
2018-04-14T18:54:37.786Z,100535.80
2018-04-14T18:57:05.623Z,100531.30
2018-04-14T18:59:33.253Z,100535.41
2018-04-14T19:02:00.970Z,100538.97
2018-04-14T19:04:28.597Z,100544.45
2018-04-14T19:06:56.271Z,100542.11
2018-04-14T19:09:23.888Z,100545.17
2018-04-14T19:11:51.573Z,100534.89
2018-04-14T19:14:19.212Z,100543.38
2018-04-14T19:16:46.868Z,100543.81
2018-04-14T19:19:14.494Z,100537.02
2018-04-14T19:21:42.150Z,100538.89
2018-04-14T19:24:09.770Z,100537.89
2018-04-14T19:26:37.453Z,100536.73
2018-04-14T19:29:05.087Z,100539.98
2018-04-14T19:31:32.738Z,100536.13
2018-04-14T19:34:00.371Z,100539.26
2018-04-14T19:36:28.040Z,100536.29
2018-04-14T19:38:55.703Z,100530.16
2018-04-14T19:41:23.345Z,100532.09
2018-04-14T19:43:51.029Z,100527.13
2018-04-14T19:46:18.679Z,100526.19
2018-04-14T19:48:46.382Z,100521.39
2018-04-14T19:51:14.043Z,100527.29
2018-04-14T19:53:41.715Z,100529.99
2018-04-14T19:56:09.363Z,100532.93
2018-04-14T19:58:37.026Z,100527.09
2018-04-14T20:01:04.669Z,100533.83
2018-04-14T20:03:32.339Z,100533.16
2018-04-14T20:05:59.959Z,100533.07
2018-04-14T20:08:27.621Z,100529.20
2018-04-14T20:10:55.288Z,100523.47
2018-04-14T20:13:22.937Z,100528.52
2018-04-14T20:15:50.608Z,100524.82
2018-04-14T20:18:18.306Z,100532.77
2018-04-14T20:20:45.918Z,100531.08
2018-04-14T20:23:13.579Z,100533.19
2018-04-14T20:25:41.199Z,100532.55
2018-04-14T20:28:08.850Z,100523.81
2018-04-14T20:30:36.481Z,100531.79
2018-04-14T20:33:04.147Z,100524.98
2018-04-14T20:35:31.755Z,100529.86
2018-04-14T20:37:59.431Z,100521.99
2018-04-14T20:40:27.042Z,100525.69
2018-04-14T20:42:54.753Z,100527.84
2018-04-14T20:45:22.409Z,100520.45
2018-04-14T20:47:50.084Z,100511.34
2018-04-14T20:50:17.711Z,100509.45
2018-04-14T20:52:45.448Z,100510.63
2018-04-14T20:55:13.072Z,100509.48
2018-04-14T20:57:40.729Z,100512.95
2018-04-14T21:00:08.381Z,100510.05
2018-04-14T21:02:36.045Z,100503.88
2018-04-14T21:05:03.788Z,100505.69
2018-04-14T21:07:31.456Z,100505.67
2018-04-14T21:09:59.071Z,100503.28
2018-04-14T21:12:26.730Z,100500.36
2018-04-14T21:14:54.349Z,100494.14
2018-04-14T21:17:22.008Z,100490.78
2018-04-14T21:19:49.640Z,100490.12
2018-04-14T21:22:17.608Z,100489.41
2018-04-14T21:24:45.264Z,100484.73
2018-04-14T21:27:12.951Z,100485.40
2018-04-14T21:29:40.652Z,100478.09
2018-04-14T21:32:08.417Z,100479.08
2018-04-14T21:34:36.048Z,100485.86
2018-04-14T21:37:03.705Z,100481.17
2018-04-14T21:39:31.347Z,100480.49
2018-04-14T21:41:58.961Z,100478.15
2018-04-14T21:44:26.621Z,100484.06
2018-04-14T21:46:54.252Z,100480.41
2018-04-14T21:49:21.911Z,100476.12
2018-04-14T21:51:49.532Z,100476.70
2018-04-14T21:54:17.221Z,100475.90
2018-04-14T21:56:44.847Z,100472.88
2018-04-14T21:59:12.511Z,100474.79
2018-04-14T22:01:40.147Z,100468.42
2018-04-14T22:04:07.832Z,100468.63
2018-04-14T22:06:35.474Z,100466.09
2018-04-14T22:09:03.162Z,100461.47
2018-04-14T22:11:30.818Z,100460.23
2018-04-14T22:13:58.497Z,100460.03
2018-04-14T22:16:26.158Z,100468.69
2018-04-14T22:18:53.895Z,100461.06
2018-04-14T22:21:21.511Z,100462.95
2018-04-14T22:23:49.200Z,100457.61
2018-04-14T22:26:16.859Z,100452.36
2018-04-14T22:28:44.532Z,100449.27
2018-04-14T22:31:12.194Z,100445.95
2018-04-14T22:33:39.862Z,100448.65
2018-04-14T22:36:07.508Z,100442.86
2018-04-14T22:38:35.173Z,100435.31
2018-04-14T22:41:02.818Z,100437.92
2018-04-14T22:43:30.494Z,100432.88
2018-04-14T22:45:58.115Z,100428.17
2018-04-14T22:48:25.841Z,100428.29
2018-04-14T22:50:53.469Z,100427.05
2018-04-14T22:53:21.138Z,100429.69
2018-04-14T22:55:48.781Z,100427.02
2018-04-14T22:58:16.463Z,100427.45
2018-04-14T23:00:44.115Z,100429.00
2018-04-14T23:03:11.778Z,100432.86
2018-04-14T23:05:39.458Z,100421.52
2018-04-14T23:08:07.079Z,100421.59
2018-04-14T23:10:34.744Z,100424.61
2018-04-14T23:13:02.367Z,100425.16
2018-04-14T23:15:30.033Z,100424.08
2018-04-14T23:17:57.655Z,100418.77
2018-04-14T23:20:25.370Z,100418.48
2018-04-14T23:22:52.999Z,100413.89
2018-04-14T23:25:20.659Z,100422.35
2018-04-14T23:27:48.298Z,100422.96
2018-04-14T23:30:15.978Z,100418.28
2018-04-14T23:32:43.617Z,100424.70
2018-04-14T23:35:11.275Z,100412.30
2018-04-14T23:37:38.936Z,100411.30
2018-04-14T23:40:06.600Z,100407.98
2018-04-14T23:42:34.215Z,100414.47
2018-04-14T23:45:01.901Z,100414.73
2018-04-14T23:47:29.550Z,100407.87
2018-04-14T23:49:57.184Z,100407.05
2018-04-14T23:52:24.860Z,100407.98
2018-04-14T23:54:52.469Z,100408.44
2018-04-14T23:57:20.119Z,100407.26
2018-04-14T23:59:47.732Z,100410.86
